Decoded Metar for SAEZ (BUENOS AIRES/EZE in ARGENTINA) (IATA:N/A) | Meteo·Mobile Aviation Weather
aviador You're here:

SAEZ Decoded Metar

BUENOS AIRES/EZE in ARGENTINA
Report Time2018-11-19 07:00:00
UTC Time2018-11-19 08:55:41
Flight Rules Old
Wind310° at 05 kt
W.Decomp.*RWY 29: 4.5 kt HW 2.3 kt RCW
RWY 35: 4.2 kt HW 2.7 kt LCW
W.Rank310° ranks 36
Current wind is below 310° avg. (6.4)
Visibility9999 m
Phenomena:N/A
Clouds:N/A
Expected CloudBase > 1,600 ft AGL from Temp-Dew spread
CeilingNone
Temp13°C (ISA -2)
Dew Point09°C (77% RH)
AAT11.0°C
QNH1016 hPa
Density Alt-102 ft
Elevation66 ft
Report Wrong Elevation
Raw Report
METAR SAEZ 190700Z 31005KT CAVOK 13/09 Q1016 NOSIG=

Extra information for SAEZ:More info

Metar Taf Metar & Taf Last 4 Metars F.Rules Stats Wind Profile Meteogram Temp Stats Airport Information Weather charts Add Link Nearby VenuesMetar ALERT Operation Metar Decoded Social comments